This is the latest recevied weather packets stored in our database for station/object G4WLC-1. If no packets are shown the sender has not sent any weather packets the latest 1 day(s).
| Time | Temp. | Humidity | Pressure | Rain* | Wind** | Luminosity | Snow |
|---|---|---|---|---|---|---|---|
| 1777996383 | 12.78° C | 68% | 1013.3 hPa | 0 mm | 0.45 m/s, 349° | - | - |
| 1777996083 | 13.33° C | 67% | 1013.3 hPa | 0 mm | 0.45 m/s, 355° | - | - |
| 1777995783 | 13.33° C | 67% | 1013.4 hPa | 0 mm | 0.45 m/s, 264° | - | - |
| 1777995483 | 13.33° C | 69% | 1013.4 hPa | 0 mm | 0 m/s | - | - |
| 1777995183 | 13.33° C | 68% | 1013.5 hPa | 0 mm | 0 m/s | - | - |
| 1777994883 | 13.33° C | 68% | 1013.4 hPa | 0 mm | 0 m/s | - | - |
| 1777994583 | 13.33° C | 69% | 1013.5 hPa | 0 mm | 0 m/s | - | - |
| 1777994283 | 13.33° C | 69% | 1013.6 hPa | 0 mm | 0 m/s | - | - |
| 1777993983 | 13.33° C | 69% | 1013.5 hPa | 0 mm | 0.45 m/s, 288° | - | - |
| 1777993683 | 13.33° C | 69% | 1013.7 hPa | 0 mm | 0.45 m/s, 257° | - | - |
| 1777993383 | 13.33° C | 68% | 1013.7 hPa | 0 mm | 0.45 m/s, 280° | - | - |
| 1777993083 | 13.89° C | 66% | 1013.7 hPa | 0 mm | 0.45 m/s, 27° | - | - |
| 1777992783 | 14.44° C | 65% | 1013.6 hPa | 0 mm | 0.45 m/s, 323° | - | - |
| 1777992483 | 14.44° C | 66% | 1013.5 hPa | 0 mm | 0 m/s | - | - |
| 1777992183 | 15° C | 59% | 1013.5 hPa | 0 mm | 0 m/s | - | - |
| 1777991883 | 15° C | 62% | 1013.4 hPa | 0 mm | 0 m/s | - | - |
| 1777991583 | 15.56° C | 60% | 1013.3 hPa | 0 mm | 0.45 m/s, 280° | - | - |
| 1777991283 | 15.56° C | 56% | 1013.4 hPa | 0 mm | 0.45 m/s, 8° | - | - |
| 1777990983 | 15.56° C | 60% | 1013.5 hPa | 0 mm | 0.45 m/s, 85° | - | - |
| 1777990683 | 15° C | 61% | 1013.6 hPa | 0 mm | 0.45 m/s, 47° | - | - |
| 1777990384 | 15° C | 62% | 1013.6 hPa | 0 mm | 0 m/s | - | - |
| 1777990083 | 14.44° C | 62% | 1013.7 hPa | 0 mm | 0.45 m/s, 307° | - | - |
| 1777989783 | 14.44° C | 61% | 1013.9 hPa | 0 mm | 0.45 m/s, 334° | - | - |
| 1777989483 | 14.44° C | 64% | 1013.8 hPa | 0 mm | 0.45 m/s, 12° | - | - |
| 1777989184 | 14.44° C | 62% | 1013.8 hPa | 0 mm | 0.45 m/s, 340° | - | - |
* Rain latest hour (hover to see other rain measurements)
** Current wind speed in m/s (hover to see current wind gust speed)